sensor_id;sensor_type;location;lat;lon;timestamp;P1;durP1;ratioP1;P2;durP2;ratioP2
58260;SDS011;44058;52.898;6.502;2023-09-19T00:01:34;7.80;;;1.73;;
58260;SDS011;44058;52.898;6.502;2023-09-19T00:04:00;5.38;;;1.25;;
58260;SDS011;44058;52.898;6.502;2023-09-19T00:06:28;7.88;;;1.52;;
58260;SDS011;44058;52.898;6.502;2023-09-19T00:08:56;3.20;;;1.30;;
58260;SDS011;44058;52.898;6.502;2023-09-19T00:11:24;6.95;;;1.30;;
58260;SDS011;44058;52.898;6.502;2023-09-19T00:13:51;5.70;;;1.30;;
58260;SDS011;44058;52.898;6.502;2023-09-19T00:16:18;5.68;;;1.77;;
58260;SDS011;44058;52.898;6.502;2023-09-19T00:18:45;6.82;;;1.38;;
58260;SDS011;44058;52.898;6.502;2023-09-19T00:21:12;7.28;;;2.08;;
58260;SDS011;44058;52.898;6.502;2023-09-19T00:23:38;5.97;;;1.70;;
58260;SDS011;44058;52.898;6.502;2023-09-19T00:26:06;7.40;;;1.58;;
58260;SDS011;44058;52.898;6.502;2023-09-19T00:28:32;5.85;;;1.63;;
58260;SDS011;44058;52.898;6.502;2023-09-19T00:30:58;4.68;;;1.15;;
58260;SDS011;44058;52.898;6.502;2023-09-19T00:33:27;7.97;;;1.60;;
58260;SDS011;44058;52.898;6.502;2023-09-19T00:35:54;7.95;;;1.50;;
58260;SDS011;44058;52.898;6.502;2023-09-19T00:38:21;9.95;;;2.20;;
58260;SDS011;44058;52.898;6.502;2023-09-19T00:40:50;8.07;;;1.52;;
58260;SDS011;44058;52.898;6.502;2023-09-19T00:43:16;5.18;;;1.40;;
58260;SDS011;44058;52.898;6.502;2023-09-19T00:45:44;6.57;;;1.48;;
58260;SDS011;44058;52.898;6.502;2023-09-19T00:48:30;10.02;;;2.17;;
58260;SDS011;44058;52.898;6.502;2023-09-19T00:51:02;4.82;;;1.70;;
58260;SDS011;44058;52.898;6.502;2023-09-19T00:53:29;8.55;;;1.67;;
58260;SDS011;44058;52.898;6.502;2023-09-19T00:55:56;5.60;;;1.83;;
58260;SDS011;44058;52.898;6.502;2023-09-19T00:58:22;9.07;;;2.20;;
58260;SDS011;44058;52.898;6.502;2023-09-19T01:00:48;9.82;;;2.28;;
58260;SDS011;44058;52.898;6.502;2023-09-19T01:03:15;8.30;;;2.17;;
58260;SDS011;44058;52.898;6.502;2023-09-19T01:05:43;7.95;;;2.15;;
58260;SDS011;44058;52.898;6.502;2023-09-19T01:08:09;7.00;;;2.00;;
58260;SDS011;44058;52.898;6.502;2023-09-19T01:10:44;8.95;;;2.13;;
58260;SDS011;44058;52.898;6.502;2023-09-19T01:15:47;6.93;;;1.90;;
58260;SDS011;44058;52.898;6.502;2023-09-19T01:28:31;7.13;;;2.08;;
58260;SDS011;44058;52.898;6.502;2023-09-19T01:31:02;7.38;;;2.40;;
58260;SDS011;44058;52.898;6.502;2023-09-19T01:33:41;7.15;;;1.73;;
58260;SDS011;44058;52.898;6.502;2023-09-19T01:36:16;9.02;;;1.95;;
58260;SDS011;44058;52.898;6.502;2023-09-19T01:38:42;8.57;;;2.40;;
58260;SDS011;44058;52.898;6.502;2023-09-19T01:41:11;7.20;;;1.80;;
58260;SDS011;44058;52.898;6.502;2023-09-19T01:43:38;9.82;;;2.25;;
58260;SDS011;44058;52.898;6.502;2023-09-19T01:48:40;10.20;;;2.55;;
58260;SDS011;44058;52.898;6.502;2023-09-19T01:51:10;10.05;;;2.17;;
58260;SDS011;44058;52.898;6.502;2023-09-19T01:56:27;5.22;;;1.85;;
58260;SDS011;44058;52.898;6.502;2023-09-19T01:59:17;7.57;;;1.90;;
58260;SDS011;44058;52.898;6.502;2023-09-19T02:02:07;8.27;;;2.60;;
58260;SDS011;44058;52.898;6.502;2023-09-19T02:04:33;8.02;;;2.70;;
58260;SDS011;44058;52.898;6.502;2023-09-19T02:07:00;7.90;;;2.58;;
58260;SDS011;44058;52.898;6.502;2023-09-19T02:09:26;7.18;;;2.38;;
58260;SDS011;44058;52.898;6.502;2023-09-19T02:11:52;9.98;;;2.85;;
58260;SDS011;44058;52.898;6.502;2023-09-19T02:14:20;7.45;;;2.47;;
58260;SDS011;44058;52.898;6.502;2023-09-19T02:16:47;9.00;;;2.72;;
58260;SDS011;44058;52.898;6.502;2023-09-19T02:19:15;7.38;;;2.00;;
58260;SDS011;44058;52.898;6.502;2023-09-19T02:21:41;10.23;;;2.42;;
58260;SDS011;44058;52.898;6.502;2023-09-19T02:24:08;10.70;;;2.08;;
58260;SDS011;44058;52.898;6.502;2023-09-19T02:26:35;7.78;;;2.15;;
58260;SDS011;44058;52.898;6.502;2023-09-19T02:29:02;8.95;;;1.92;;
58260;SDS011;44058;52.898;6.502;2023-09-19T02:31:30;7.00;;;2.13;;
58260;SDS011;44058;52.898;6.502;2023-09-19T02:33:56;10.43;;;2.25;;
58260;SDS011;44058;52.898;6.502;2023-09-19T02:36:22;5.28;;;1.67;;
58260;SDS011;44058;52.898;6.502;2023-09-19T02:38:49;5.88;;;1.92;;
58260;SDS011;44058;52.898;6.502;2023-09-19T02:41:15;9.02;;;1.95;;
58260;SDS011;44058;52.898;6.502;2023-09-19T02:43:41;9.00;;;2.10;;
58260;SDS011;44058;52.898;6.502;2023-09-19T02:46:08;8.05;;;2.70;;
58260;SDS011;44058;52.898;6.502;2023-09-19T02:48:34;7.85;;;2.03;;
58260;SDS011;44058;52.898;6.502;2023-09-19T02:51:01;9.73;;;1.70;;
58260;SDS011;44058;52.898;6.502;2023-09-19T02:53:30;7.72;;;2.05;;
58260;SDS011;44058;52.898;6.502;2023-09-19T02:55:57;6.10;;;2.33;;
58260;SDS011;44058;52.898;6.502;2023-09-19T02:58:24;8.93;;;2.00;;
58260;SDS011;44058;52.898;6.502;2023-09-19T03:00:50;7.53;;;1.70;;
58260;SDS011;44058;52.898;6.502;2023-09-19T03:03:17;7.00;;;1.90;;
58260;SDS011;44058;52.898;6.502;2023-09-19T03:05:43;8.02;;;1.70;;
58260;SDS011;44058;52.898;6.502;2023-09-19T03:08:15;4.85;;;1.75;;
58260;SDS011;44058;52.898;6.502;2023-09-19T03:10:42;5.20;;;1.60;;
58260;SDS011;44058;52.898;6.502;2023-09-19T03:13:08;6.93;;;1.83;;
58260;SDS011;44058;52.898;6.502;2023-09-19T03:15:35;5.10;;;1.75;;
58260;SDS011;44058;52.898;6.502;2023-09-19T03:18:04;4.15;;;1.83;;
58260;SDS011;44058;52.898;6.502;2023-09-19T03:20:31;6.70;;;2.05;;
58260;SDS011;44058;52.898;6.502;2023-09-19T03:22:58;6.28;;;1.80;;
58260;SDS011;44058;52.898;6.502;2023-09-19T03:25:45;6.10;;;1.52;;
58260;SDS011;44058;52.898;6.502;2023-09-19T03:28:11;4.57;;;1.55;;
58260;SDS011;44058;52.898;6.502;2023-09-19T03:31:00;6.85;;;1.65;;
58260;SDS011;44058;52.898;6.502;2023-09-19T03:33:26;7.22;;;1.50;;
58260;SDS011;44058;52.898;6.502;2023-09-19T03:35:53;8.18;;;1.95;;
58260;SDS011;44058;52.898;6.502;2023-09-19T03:38:19;5.50;;;1.88;;
58260;SDS011;44058;52.898;6.502;2023-09-19T03:40:47;7.88;;;2.15;;
58260;SDS011;44058;52.898;6.502;2023-09-19T03:43:14;7.30;;;2.10;;
58260;SDS011;44058;52.898;6.502;2023-09-19T03:45:40;9.23;;;1.50;;
58260;SDS011;44058;52.898;6.502;2023-09-19T03:48:09;6.28;;;1.83;;
58260;SDS011;44058;52.898;6.502;2023-09-19T03:50:35;6.78;;;1.65;;
58260;SDS011;44058;52.898;6.502;2023-09-19T03:53:02;9.70;;;1.63;;
58260;SDS011;44058;52.898;6.502;2023-09-19T03:55:28;6.32;;;1.95;;
58260;SDS011;44058;52.898;6.502;2023-09-19T03:57:57;4.65;;;2.45;;
58260;SDS011;44058;52.898;6.502;2023-09-19T04:00:23;5.45;;;1.67;;
58260;SDS011;44058;52.898;6.502;2023-09-19T04:02:51;4.83;;;1.50;;
58260;SDS011;44058;52.898;6.502;2023-09-19T04:05:18;5.38;;;1.50;;
58260;SDS011;44058;52.898;6.502;2023-09-19T04:07:44;8.40;;;1.77;;
58260;SDS011;44058;52.898;6.502;2023-09-19T04:10:11;5.63;;;1.45;;
58260;SDS011;44058;52.898;6.502;2023-09-19T04:12:37;6.80;;;2.00;;
58260;SDS011;44058;52.898;6.502;2023-09-19T04:15:04;4.97;;;1.75;;
58260;SDS011;44058;52.898;6.502;2023-09-19T04:17:31;4.60;;;1.77;;
58260;SDS011;44058;52.898;6.502;2023-09-19T04:20:00;4.90;;;1.67;;
58260;SDS011;44058;52.898;6.502;2023-09-19T04:22:26;5.30;;;1.77;;
58260;SDS011;44058;52.898;6.502;2023-09-19T04:24:53;6.82;;;1.83;;
58260;SDS011;44058;52.898;6.502;2023-09-19T04:27:19;5.97;;;1.70;;
58260;SDS011;44058;52.898;6.502;2023-09-19T04:29:45;9.77;;;2.50;;
58260;SDS011;44058;52.898;6.502;2023-09-19T04:32:11;8.32;;;2.28;;
58260;SDS011;44058;52.898;6.502;2023-09-19T04:34:38;5.72;;;1.80;;
58260;SDS011;44058;52.898;6.502;2023-09-19T04:37:04;6.82;;;1.98;;
58260;SDS011;44058;52.898;6.502;2023-09-19T04:39:30;5.72;;;1.55;;
58260;SDS011;44058;52.898;6.502;2023-09-19T04:42:16;8.05;;;2.28;;
58260;SDS011;44058;52.898;6.502;2023-09-19T04:44:42;7.78;;;1.98;;
58260;SDS011;44058;52.898;6.502;2023-09-19T04:47:09;8.75;;;2.10;;
58260;SDS011;44058;52.898;6.502;2023-09-19T04:49:37;3.55;;;1.73;;
58260;SDS011;44058;52.898;6.502;2023-09-19T04:52:05;6.95;;;1.92;;
58260;SDS011;44058;52.898;6.502;2023-09-19T04:54:31;6.90;;;2.20;;
58260;SDS011;44058;52.898;6.502;2023-09-19T04:56:59;7.50;;;1.95;;
58260;SDS011;44058;52.898;6.502;2023-09-19T04:59:28;7.55;;;2.20;;
58260;SDS011;44058;52.898;6.502;2023-09-19T05:01:54;7.82;;;2.40;;
58260;SDS011;44058;52.898;6.502;2023-09-19T05:04:21;6.80;;;1.92;;
58260;SDS011;44058;52.898;6.502;2023-09-19T05:06:47;9.48;;;2.38;;
58260;SDS011;44058;52.898;6.502;2023-09-19T05:09:13;8.20;;;2.60;;
58260;SDS011;44058;52.898;6.502;2023-09-19T05:11:40;6.18;;;2.08;;
58260;SDS011;44058;52.898;6.502;2023-09-19T05:14:06;9.50;;;3.08;;
58260;SDS011;44058;52.898;6.502;2023-09-19T05:16:32;9.02;;;2.63;;
58260;SDS011;44058;52.898;6.502;2023-09-19T05:18:59;9.10;;;2.35;;
58260;SDS011;44058;52.898;6.502;2023-09-19T05:21:26;11.50;;;2.40;;
58260;SDS011;44058;52.898;6.502;2023-09-19T05:23:56;11.13;;;2.38;;
58260;SDS011;44058;52.898;6.502;2023-09-19T05:26:22;8.32;;;2.47;;
58260;SDS011;44058;52.898;6.502;2023-09-19T05:28:49;11.00;;;2.55;;
58260;SDS011;44058;52.898;6.502;2023-09-19T05:31:15;8.60;;;2.30;;
58260;SDS011;44058;52.898;6.502;2023-09-19T05:33:41;6.55;;;2.17;;
58260;SDS011;44058;52.898;6.502;2023-09-19T05:36:08;12.77;;;3.13;;
58260;SDS011;44058;52.898;6.502;2023-09-19T05:43:33;8.90;;;2.22;;
58260;SDS011;44058;52.898;6.502;2023-09-19T05:46:02;9.57;;;2.17;;
58260;SDS011;44058;52.898;6.502;2023-09-19T05:48:28;5.45;;;2.08;;
58260;SDS011;44058;52.898;6.502;2023-09-19T05:50:54;10.40;;;2.95;;
58260;SDS011;44058;52.898;6.502;2023-09-19T05:53:20;9.68;;;2.28;;
58260;SDS011;44058;52.898;6.502;2023-09-19T05:55:48;10.60;;;2.00;;
58260;SDS011;44058;52.898;6.502;2023-09-19T05:58:14;11.55;;;2.42;;
58260;SDS011;44058;52.898;6.502;2023-09-19T06:00:42;9.05;;;2.03;;
58260;SDS011;44058;52.898;6.502;2023-09-19T06:03:09;8.25;;;2.17;;
58260;SDS011;44058;52.898;6.502;2023-09-19T06:05:39;5.07;;;1.98;;
58260;SDS011;44058;52.898;6.502;2023-09-19T06:08:06;11.20;;;2.10;;
58260;SDS011;44058;52.898;6.502;2023-09-19T06:10:33;7.50;;;2.30;;
58260;SDS011;44058;52.898;6.502;2023-09-19T06:13:03;7.95;;;2.17;;
58260;SDS011;44058;52.898;6.502;2023-09-19T06:15:34;7.25;;;2.38;;
58260;SDS011;44058;52.898;6.502;2023-09-19T06:18:01;8.15;;;2.10;;
58260;SDS011;44058;52.898;6.502;2023-09-19T06:20:30;7.53;;;2.10;;
58260;SDS011;44058;52.898;6.502;2023-09-19T06:22:58;11.90;;;2.47;;
58260;SDS011;44058;52.898;6.502;2023-09-19T06:25:24;13.90;;;2.83;;
58260;SDS011;44058;52.898;6.502;2023-09-19T06:28:11;7.78;;;2.22;;
58260;SDS011;44058;52.898;6.502;2023-09-19T06:30:37;15.48;;;3.25;;
58260;SDS011;44058;52.898;6.502;2023-09-19T06:33:07;8.63;;;2.17;;
58260;SDS011;44058;52.898;6.502;2023-09-19T06:35:53;7.68;;;2.33;;
58260;SDS011;44058;52.898;6.502;2023-09-19T06:38:24;7.72;;;2.38;;
58260;SDS011;44058;52.898;6.502;2023-09-19T06:40:50;9.32;;;2.33;;
58260;SDS011;44058;52.898;6.502;2023-09-19T06:43:16;11.82;;;2.72;;
58260;SDS011;44058;52.898;6.502;2023-09-19T06:45:43;12.05;;;2.42;;
58260;SDS011;44058;52.898;6.502;2023-09-19T06:48:09;11.00;;;2.28;;
58260;SDS011;44058;52.898;6.502;2023-09-19T06:50:37;10.30;;;2.35;;
58260;SDS011;44058;52.898;6.502;2023-09-19T06:53:03;11.27;;;2.45;;
58260;SDS011;44058;52.898;6.502;2023-09-19T06:55:30;7.82;;;1.65;;
58260;SDS011;44058;52.898;6.502;2023-09-19T06:57:57;13.05;;;2.80;;
58260;SDS011;44058;52.898;6.502;2023-09-19T07:00:23;12.98;;;2.30;;
58260;SDS011;44058;52.898;6.502;2023-09-19T07:05:24;12.00;;;2.28;;
58260;SDS011;44058;52.898;6.502;2023-09-19T07:07:50;8.82;;;2.35;;
58260;SDS011;44058;52.898;6.502;2023-09-19T07:10:16;8.05;;;2.15;;
58260;SDS011;44058;52.898;6.502;2023-09-19T07:12:43;6.57;;;2.53;;
58260;SDS011;44058;52.898;6.502;2023-09-19T07:15:09;10.18;;;2.10;;
58260;SDS011;44058;52.898;6.502;2023-09-19T07:17:35;7.85;;;2.25;;
58260;SDS011;44058;52.898;6.502;2023-09-19T07:20:22;10.38;;;2.10;;
58260;SDS011;44058;52.898;6.502;2023-09-19T07:22:51;8.63;;;2.20;;
58260;SDS011;44058;52.898;6.502;2023-09-19T07:25:20;11.90;;;2.28;;
58260;SDS011;44058;52.898;6.502;2023-09-19T07:27:46;8.68;;;2.22;;
58260;SDS011;44058;52.898;6.502;2023-09-19T07:30:13;8.07;;;2.47;;
58260;SDS011;44058;52.898;6.502;2023-09-19T07:32:42;9.88;;;2.20;;
58260;SDS011;44058;52.898;6.502;2023-09-19T07:35:08;12.80;;;2.50;;
58260;SDS011;44058;52.898;6.502;2023-09-19T07:37:34;10.18;;;2.75;;
58260;SDS011;44058;52.898;6.502;2023-09-19T07:40:01;7.13;;;2.05;;
58260;SDS011;44058;52.898;6.502;2023-09-19T07:42:32;10.55;;;2.55;;
58260;SDS011;44058;52.898;6.502;2023-09-19T07:45:00;8.18;;;2.47;;
58260;SDS011;44058;52.898;6.502;2023-09-19T07:47:26;8.55;;;2.13;;
58260;SDS011;44058;52.898;6.502;2023-09-19T07:49:55;12.52;;;2.38;;
58260;SDS011;44058;52.898;6.502;2023-09-19T07:52:21;6.63;;;2.55;;
58260;SDS011;44058;52.898;6.502;2023-09-19T07:54:48;11.05;;;2.42;;
58260;SDS011;44058;52.898;6.502;2023-09-19T07:57:14;12.68;;;2.63;;
58260;SDS011;44058;52.898;6.502;2023-09-19T07:59:41;12.88;;;2.65;;
58260;SDS011;44058;52.898;6.502;2023-09-19T08:02:08;13.18;;;2.70;;
58260;SDS011;44058;52.898;6.502;2023-09-19T08:05:00;10.30;;;2.08;;
58260;SDS011;44058;52.898;6.502;2023-09-19T08:07:31;10.65;;;2.78;;
58260;SDS011;44058;52.898;6.502;2023-09-19T08:09:57;10.68;;;2.63;;
58260;SDS011;44058;52.898;6.502;2023-09-19T08:12:24;7.82;;;2.17;;
58260;SDS011;44058;52.898;6.502;2023-09-19T08:14:50;9.23;;;2.40;;
58260;SDS011;44058;52.898;6.502;2023-09-19T08:17:16;13.07;;;2.60;;
58260;SDS011;44058;52.898;6.502;2023-09-19T08:19:42;12.15;;;2.33;;
58260;SDS011;44058;52.898;6.502;2023-09-19T08:24:37;11.80;;;2.90;;
58260;SDS011;44058;52.898;6.502;2023-09-19T08:27:04;8.30;;;2.53;;
58260;SDS011;44058;52.898;6.502;2023-09-19T08:29:33;8.85;;;2.05;;
58260;SDS011;44058;52.898;6.502;2023-09-19T08:32:01;8.68;;;2.50;;
58260;SDS011;44058;52.898;6.502;2023-09-19T08:34:27;10.73;;;2.90;;
58260;SDS011;44058;52.898;6.502;2023-09-19T08:36:54;10.98;;;2.70;;
58260;SDS011;44058;52.898;6.502;2023-09-19T08:39:23;8.95;;;2.40;;
58260;SDS011;44058;52.898;6.502;2023-09-19T08:41:49;9.98;;;2.33;;
58260;SDS011;44058;52.898;6.502;2023-09-19T08:44:15;15.07;;;3.30;;
58260;SDS011;44058;52.898;6.502;2023-09-19T08:46:42;10.68;;;2.97;;
58260;SDS011;44058;52.898;6.502;2023-09-19T08:49:28;10.35;;;3.10;;
58260;SDS011;44058;52.898;6.502;2023-09-19T08:52:04;10.27;;;2.45;;
58260;SDS011;44058;52.898;6.502;2023-09-19T08:54:35;13.75;;;3.25;;
58260;SDS011;44058;52.898;6.502;2023-09-19T08:57:07;11.93;;;2.75;;
58260;SDS011;44058;52.898;6.502;2023-09-19T08:59:56;9.95;;;2.65;;
58260;SDS011;44058;52.898;6.502;2023-09-19T09:02:23;11.68;;;2.65;;
58260;SDS011;44058;52.898;6.502;2023-09-19T09:04:50;12.63;;;3.13;;
58260;SDS011;44058;52.898;6.502;2023-09-19T09:07:16;13.20;;;3.85;;
58260;SDS011;44058;52.898;6.502;2023-09-19T09:09:44;11.60;;;2.40;;
58260;SDS011;44058;52.898;6.502;2023-09-19T09:12:14;10.95;;;2.47;;
58260;SDS011;44058;52.898;6.502;2023-09-19T09:14:44;11.02;;;2.63;;
58260;SDS011;44058;52.898;6.502;2023-09-19T09:17:14;11.32;;;2.25;;
58260;SDS011;44058;52.898;6.502;2023-09-19T09:19:40;10.38;;;2.92;;
58260;SDS011;44058;52.898;6.502;2023-09-19T09:22:10;10.52;;;2.97;;
58260;SDS011;44058;52.898;6.502;2023-09-19T09:24:57;13.25;;;3.03;;
58260;SDS011;44058;52.898;6.502;2023-09-19T09:27:23;8.68;;;3.13;;
58260;SDS011;44058;52.898;6.502;2023-09-19T09:29:50;11.10;;;3.45;;
58260;SDS011;44058;52.898;6.502;2023-09-19T09:34:44;11.05;;;3.20;;
58260;SDS011;44058;52.898;6.502;2023-09-19T09:37:14;12.43;;;2.83;;
58260;SDS011;44058;52.898;6.502;2023-09-19T09:39:40;6.45;;;2.10;;
58260;SDS011;44058;52.898;6.502;2023-09-19T09:45:21;10.60;;;2.70;;
58260;SDS011;44058;52.898;6.502;2023-09-19T09:47:59;10.85;;;2.80;;
58260;SDS011;44058;52.898;6.502;2023-09-19T09:50:29;8.77;;;2.78;;
58260;SDS011;44058;52.898;6.502;2023-09-19T09:53:23;14.02;;;3.38;;
58260;SDS011;44058;52.898;6.502;2023-09-19T09:55:58;13.68;;;2.80;;
58260;SDS011;44058;52.898;6.502;2023-09-19T09:58:25;11.75;;;2.75;;
58260;SDS011;44058;52.898;6.502;2023-09-19T10:00:57;9.15;;;2.35;;
58260;SDS011;44058;52.898;6.502;2023-09-19T10:03:31;11.55;;;2.63;;
58260;SDS011;44058;52.898;6.502;2023-09-19T10:05:59;11.27;;;3.15;;
58260;SDS011;44058;52.898;6.502;2023-09-19T10:08:28;8.10;;;1.83;;
58260;SDS011;44058;52.898;6.502;2023-09-19T10:10:56;9.93;;;2.67;;
58260;SDS011;44058;52.898;6.502;2023-09-19T10:13:30;17.20;;;3.05;;
58260;SDS011;44058;52.898;6.502;2023-09-19T10:15:58;11.07;;;2.78;;
58260;SDS011;44058;52.898;6.502;2023-09-19T10:18:25;8.38;;;2.53;;
58260;SDS011;44058;52.898;6.502;2023-09-19T10:20:53;15.18;;;3.15;;
58260;SDS011;44058;52.898;6.502;2023-09-19T10:23:20;9.38;;;2.60;;
58260;SDS011;44058;52.898;6.502;2023-09-19T10:25:51;10.95;;;2.80;;
58260;SDS011;44058;52.898;6.502;2023-09-19T10:28:18;10.43;;;3.00;;
58260;SDS011;44058;52.898;6.502;2023-09-19T10:30:48;14.90;;;3.47;;
58260;SDS011;44058;52.898;6.502;2023-09-19T10:33:34;11.30;;;3.03;;
58260;SDS011;44058;52.898;6.502;2023-09-19T10:36:02;14.35;;;3.17;;
58260;SDS011;44058;52.898;6.502;2023-09-19T10:38:30;8.85;;;2.55;;
58260;SDS011;44058;52.898;6.502;2023-09-19T10:40:58;10.82;;;2.80;;
58260;SDS011;44058;52.898;6.502;2023-09-19T10:43:45;9.18;;;2.80;;
58260;SDS011;44058;52.898;6.502;2023-09-19T10:46:11;7.70;;;2.67;;
58260;SDS011;44058;52.898;6.502;2023-09-19T10:48:38;8.70;;;2.40;;
58260;SDS011;44058;52.898;6.502;2023-09-19T10:51:15;9.82;;;2.67;;
58260;SDS011;44058;52.898;6.502;2023-09-19T10:53:51;9.77;;;2.70;;
58260;SDS011;44058;52.898;6.502;2023-09-19T10:56:23;9.05;;;2.30;;
58260;SDS011;44058;52.898;6.502;2023-09-19T10:58:53;11.50;;;2.55;;
58260;SDS011;44058;52.898;6.502;2023-09-19T11:01:41;7.60;;;2.50;;
58260;SDS011;44058;52.898;6.502;2023-09-19T11:04:22;9.48;;;2.25;;
58260;SDS011;44058;52.898;6.502;2023-09-19T11:09:54;10.13;;;2.45;;
58260;SDS011;44058;52.898;6.502;2023-09-19T11:14:56;8.43;;;2.50;;
58260;SDS011;44058;52.898;6.502;2023-09-19T11:17:32;9.90;;;2.65;;
58260;SDS011;44058;52.898;6.502;2023-09-19T11:25:42;7.05;;;1.90;;
58260;SDS011;44058;52.898;6.502;2023-09-19T11:30:49;9.02;;;2.95;;
58260;SDS011;44058;52.898;6.502;2023-09-19T11:43:46;12.65;;;2.80;;
58260;SDS011;44058;52.898;6.502;2023-09-19T11:46:13;9.10;;;2.63;;
58260;SDS011;44058;52.898;6.502;2023-09-19T11:49:08;7.25;;;1.92;;
58260;SDS011;44058;52.898;6.502;2023-09-19T11:51:42;8.52;;;2.25;;
58260;SDS011;44058;52.898;6.502;2023-09-19T11:54:13;6.07;;;1.95;;
58260;SDS011;44058;52.898;6.502;2023-09-19T11:56:44;11.43;;;2.50;;
58260;SDS011;44058;52.898;6.502;2023-09-19T11:59:10;9.32;;;2.60;;
58260;SDS011;44058;52.898;6.502;2023-09-19T12:01:57;7.47;;;2.13;;
58260;SDS011;44058;52.898;6.502;2023-09-19T12:04:33;9.63;;;2.47;;
58260;SDS011;44058;52.898;6.502;2023-09-19T12:07:22;9.57;;;2.30;;
58260;SDS011;44058;52.898;6.502;2023-09-19T12:09:50;12.73;;;3.33;;
58260;SDS011;44058;52.898;6.502;2023-09-19T12:12:19;8.43;;;2.10;;
58260;SDS011;44058;52.898;6.502;2023-09-19T12:14:48;9.13;;;1.98;;
58260;SDS011;44058;52.898;6.502;2023-09-19T12:17:14;9.23;;;2.17;;
58260;SDS011;44058;52.898;6.502;2023-09-19T12:19:49;8.18;;;2.33;;
58260;SDS011;44058;52.898;6.502;2023-09-19T12:22:16;7.88;;;1.88;;
58260;SDS011;44058;52.898;6.502;2023-09-19T12:24:44;7.63;;;1.92;;
58260;SDS011;44058;52.898;6.502;2023-09-19T12:27:12;8.75;;;2.13;;
58260;SDS011;44058;52.898;6.502;2023-09-19T12:29:42;9.45;;;2.20;;
58260;SDS011;44058;52.898;6.502;2023-09-19T12:32:08;8.73;;;1.70;;
58260;SDS011;44058;52.898;6.502;2023-09-19T12:34:35;8.25;;;2.05;;
58260;SDS011;44058;52.898;6.502;2023-09-19T12:37:05;7.05;;;1.92;;
58260;SDS011;44058;52.898;6.502;2023-09-19T12:39:39;8.50;;;1.83;;
58260;SDS011;44058;52.898;6.502;2023-09-19T12:42:07;6.80;;;1.75;;
58260;SDS011;44058;52.898;6.502;2023-09-19T12:44:35;6.72;;;1.70;;
58260;SDS011;44058;52.898;6.502;2023-09-19T12:47:08;7.95;;;2.25;;
58260;SDS011;44058;52.898;6.502;2023-09-19T12:49:34;6.78;;;2.33;;
58260;SDS011;44058;52.898;6.502;2023-09-19T12:52:00;6.00;;;2.00;;
58260;SDS011;44058;52.898;6.502;2023-09-19T12:54:39;6.25;;;1.63;;
58260;SDS011;44058;52.898;6.502;2023-09-19T12:57:07;10.07;;;2.33;;
58260;SDS011;44058;52.898;6.502;2023-09-19T12:59:33;10.70;;;2.00;;
58260;SDS011;44058;52.898;6.502;2023-09-19T13:02:04;8.80;;;1.67;;
58260;SDS011;44058;52.898;6.502;2023-09-19T13:04:59;4.82;;;1.40;;
58260;SDS011;44058;52.898;6.502;2023-09-19T13:07:42;8.05;;;2.05;;
58260;SDS011;44058;52.898;6.502;2023-09-19T13:10:12;7.88;;;1.60;;
58260;SDS011;44058;52.898;6.502;2023-09-19T13:12:42;4.88;;;1.75;;
58260;SDS011;44058;52.898;6.502;2023-09-19T13:15:15;4.20;;;1.40;;
58260;SDS011;44058;52.898;6.502;2023-09-19T13:17:48;4.18;;;1.33;;
58260;SDS011;44058;52.898;6.502;2023-09-19T13:20:34;7.10;;;2.08;;
58260;SDS011;44058;52.898;6.502;2023-09-19T13:23:04;6.28;;;1.70;;
58260;SDS011;44058;52.898;6.502;2023-09-19T13:25:35;9.30;;;1.85;;
58260;SDS011;44058;52.898;6.502;2023-09-19T13:28:01;9.40;;;1.80;;
58260;SDS011;44058;52.898;6.502;2023-09-19T13:30:30;6.00;;;1.25;;
58260;SDS011;44058;52.898;6.502;2023-09-19T13:33:12;6.60;;;1.67;;
58260;SDS011;44058;52.898;6.502;2023-09-19T13:35:44;7.13;;;1.47;;
58260;SDS011;44058;52.898;6.502;2023-09-19T13:38:11;4.70;;;1.50;;
58260;SDS011;44058;52.898;6.502;2023-09-19T13:40:40;5.72;;;1.58;;
58260;SDS011;44058;52.898;6.502;2023-09-19T13:43:07;8.77;;;1.63;;
58260;SDS011;44058;52.898;6.502;2023-09-19T13:45:33;3.33;;;1.40;;
58260;SDS011;44058;52.898;6.502;2023-09-19T13:47:59;8.02;;;1.70;;
58260;SDS011;44058;52.898;6.502;2023-09-19T13:50:26;6.75;;;1.70;;
58260;SDS011;44058;52.898;6.502;2023-09-19T13:52:54;4.50;;;1.30;;
58260;SDS011;44058;52.898;6.502;2023-09-19T13:55:20;7.18;;;1.70;;
58260;SDS011;44058;52.898;6.502;2023-09-19T13:57:47;11.10;;;1.65;;
58260;SDS011;44058;52.898;6.502;2023-09-19T14:00:21;6.80;;;1.58;;
58260;SDS011;44058;52.898;6.502;2023-09-19T14:02:47;6.00;;;1.25;;
58260;SDS011;44058;52.898;6.502;2023-09-19T14:05:14;6.82;;;1.83;;
58260;SDS011;44058;52.898;6.502;2023-09-19T14:07:42;4.30;;;1.40;;
58260;SDS011;44058;52.898;6.502;2023-09-19T14:10:09;5.38;;;1.95;;
58260;SDS011;44058;52.898;6.502;2023-09-19T14:12:36;6.68;;;1.40;;
58260;SDS011;44058;52.898;6.502;2023-09-19T14:15:05;4.45;;;1.50;;
58260;SDS011;44058;52.898;6.502;2023-09-19T14:17:32;4.28;;;1.33;;
58260;SDS011;44058;52.898;6.502;2023-09-19T14:19:58;4.53;;;1.42;;
58260;SDS011;44058;52.898;6.502;2023-09-19T14:22:24;3.50;;;1.30;;
58260;SDS011;44058;52.898;6.502;2023-09-19T14:24:50;3.85;;;1.10;;
58260;SDS011;44058;52.898;6.502;2023-09-19T14:27:18;3.92;;;1.20;;
58260;SDS011;44058;52.898;6.502;2023-09-19T14:29:44;5.22;;;1.40;;
58260;SDS011;44058;52.898;6.502;2023-09-19T14:32:10;3.33;;;1.10;;
58260;SDS011;44058;52.898;6.502;2023-09-19T14:34:36;4.72;;;1.25;;
58260;SDS011;44058;52.898;6.502;2023-09-19T14:37:07;5.45;;;1.08;;
58260;SDS011;44058;52.898;6.502;2023-09-19T14:39:53;4.93;;;1.25;;
58260;SDS011;44058;52.898;6.502;2023-09-19T14:42:19;6.72;;;1.45;;
58260;SDS011;44058;52.898;6.502;2023-09-19T14:44:45;7.65;;;1.70;;
58260;SDS011;44058;52.898;6.502;2023-09-19T14:47:13;4.30;;;1.33;;
58260;SDS011;44058;52.898;6.502;2023-09-19T14:49:41;2.13;;;1.38;;
58260;SDS011;44058;52.898;6.502;2023-09-19T14:52:08;5.13;;;1.30;;
58260;SDS011;44058;52.898;6.502;2023-09-19T14:54:34;3.55;;;0.85;;
58260;SDS011;44058;52.898;6.502;2023-09-19T14:57:22;4.47;;;1.17;;
58260;SDS011;44058;52.898;6.502;2023-09-19T14:59:50;3.17;;;0.88;;
58260;SDS011;44058;52.898;6.502;2023-09-19T15:02:16;4.40;;;1.70;;
58260;SDS011;44058;52.898;6.502;2023-09-19T15:04:42;2.80;;;1.05;;
58260;SDS011;44058;52.898;6.502;2023-09-19T15:07:12;5.57;;;1.15;;
58260;SDS011;44058;52.898;6.502;2023-09-19T15:09:40;3.55;;;1.20;;
58260;SDS011;44058;52.898;6.502;2023-09-19T15:12:06;5.38;;;1.23;;
58260;SDS011;44058;52.898;6.502;2023-09-19T15:14:32;4.07;;;1.17;;
58260;SDS011;44058;52.898;6.502;2023-09-19T15:16:58;4.50;;;1.20;;
58260;SDS011;44058;52.898;6.502;2023-09-19T15:19:24;3.80;;;1.40;;
58260;SDS011;44058;52.898;6.502;2023-09-19T15:21:50;7.65;;;1.50;;
58260;SDS011;44058;52.898;6.502;2023-09-19T15:24:17;3.83;;;1.08;;
58260;SDS011;44058;52.898;6.502;2023-09-19T15:26:43;5.80;;;1.35;;
58260;SDS011;44058;52.898;6.502;2023-09-19T15:29:10;4.75;;;1.20;;
58260;SDS011;44058;52.898;6.502;2023-09-19T15:31:36;5.28;;;1.33;;
58260;SDS011;44058;52.898;6.502;2023-09-19T15:34:03;5.07;;;1.02;;
58260;SDS011;44058;52.898;6.502;2023-09-19T15:36:50;4.25;;;1.65;;
58260;SDS011;44058;52.898;6.502;2023-09-19T15:39:16;2.60;;;1.10;;
58260;SDS011;44058;52.898;6.502;2023-09-19T15:41:45;6.22;;;1.42;;
58260;SDS011;44058;52.898;6.502;2023-09-19T15:44:14;5.80;;;1.25;;
58260;SDS011;44058;52.898;6.502;2023-09-19T15:46:41;7.75;;;1.23;;
58260;SDS011;44058;52.898;6.502;2023-09-19T15:49:07;5.57;;;1.27;;
58260;SDS011;44058;52.898;6.502;2023-09-19T15:51:34;5.30;;;1.65;;
58260;SDS011;44058;52.898;6.502;2023-09-19T15:54:07;3.53;;;1.40;;
58260;SDS011;44058;52.898;6.502;2023-09-19T15:56:33;4.78;;;1.13;;